Thunder radar more information blitzortung!


Löydät sääaseman tiedot myös:

European Weather Network

Finland Weather Exchange

Weather Underground

AWEKAS



Weather Underground säähistoriasivu

Päivittäin yhteenveto Elokuu 21, 2017 Yksiköt:  Englantilaiset    Metriset   Molemmat
« Edellinen Päivä
Seuraava Päivä »
Päivittäin Viikoittain Kuukausittain Vuosittain Mukautettu
  Korkea: Matala: Keskiarvo:
Lämpötila: TemperatureC °F 10.6 °F 15.1 °F
Kastepiste: DewpointC °F 9.5 °F 12 °F
Kosteus: Humidity % 61 % 82 %
Tuulen nopeus: WindSpeedKMH mph 0.0 mph 2.4 mph
Tuulenpuuska: WindSpeedGustKMH mph - -
Tuuli:- - SSW
Ilmanpaine: PressurehPa in 1008.0 in -
Sade: 0.0 in    
Historical Graphs
 
 
Taulukkotiedot Elokuu 21, 2017
Aika Lämpötila Kastepiste Ilmanpaine Tuuli Tuulen nopeus Tuulenpuuska Kosteus Sademäärä (tunneittain)
TemperatureC °F DewpointC °F PressurehPa in Calm     Humidity % HourlyPrecipMM in
00:00 13.7 °F 11.9 °F 1008.4 in SSW 3.2 mph 9.7 mph 89 % 0.0 in
00:15 13.5 °F 11.7 °F 1008.4 in SSW 3.2 mph 9.7 mph 89 % 0.0 in
00:30 13.3 °F 11.5 °F 1008.4 in South 1.6 mph 11.3 mph 89 % 0.0 in
00:45 13.1 °F 11.5 °F 1008.4 in SW 1.6 mph 9.7 mph 90 % 0.0 in
01:00 12.9 °F 11.3 °F 1008.4 in Calm   6.4 mph 90 % 0.0 in
01:15 12.7 °F 11.1 °F 1008.4 in SSE 1.6 mph 8.0 mph 90 % 0.0 in
01:30 12.7 °F 11.2 °F 1008.4 in SSW 1.6 mph 11.3 mph 91 % 0.0 in
01:45 12.6 °F 11.2 °F 1008.4 in SSW 3.2 mph 14.5 mph 91 % 0.0 in
02:00 12.7 °F 11.3 °F 1008.4 in SSW 4.8 mph 9.7 mph 91 % 0.0 in
02:15 12.7 °F 11.4 °F 1008.4 in SSW 1.6 mph 16.1 mph 92 % 0.0 in
02:30 12.6 °F 11.3 °F 1008.4 in SSW 1.6 mph 6.4 mph 92 % 0.0 in
02:45 12.4 °F 11.2 °F 1008.4 in SSW 3.2 mph 8.0 mph 92 % 0.0 in
03:00 12.3 °F 11.1 °F 1008.0 in SSW 1.6 mph 9.7 mph 92 % 0.0 in
03:15 12.2 °F 11.1 °F 1008.0 in SSW 1.6 mph 9.7 mph 93 % 0.0 in
03:30 12.1 °F 11.0 °F 1008.4 in South 1.6 mph 8.0 mph 93 % 0.0 in
03:45 12.0 °F 11.1 °F 1008.0 in SSW 1.6 mph 6.4 mph 94 % 0.0 in
04:00 11.8 °F 10.9 °F 1008.0 in Calm   4.8 mph 94 % 0.0 in
04:15 11.7 °F 10.7 °F 1008.4 in Calm   8.0 mph 94 % 0.0 in
04:30 11.6 °F 10.6 °F 1008.4 in SSW 1.6 mph 8.0 mph 94 % 0.0 in
04:45 11.5 °F 10.7 °F 1008.4 in Calm   4.8 mph 95 % 0.0 in
05:00 11.3 °F 10.6 °F 1008.4 in Calm   3.2 mph 95 % 0.0 in
05:15 11.2 °F 10.5 °F 1008.7 in Calm   3.2 mph 95 % 0.0 in
05:30 11.2 °F 10.6 °F 1008.7 in Calm   3.2 mph 96 % 0.0 in
05:45 11.3 °F 10.7 °F 1008.7 in SSW 1.6 mph 4.8 mph 96 % 0.0 in
06:00 11.5 °F 10.9 °F 1008.7 in Calm   4.8 mph 96 % 0.0 in
06:15 11.7 °F 11.1 °F 1008.7 in SSW 1.6 mph 6.4 mph 96 % 0.0 in
06:30 12.1 °F 11.6 °F 1008.7 in SSW 1.6 mph 6.4 mph 97 % 0.0 in
06:45 12.4 °F 11.9 °F 1008.7 in SSW 3.2 mph 9.7 mph 97 % 0.0 in
07:00 12.7 °F 12.0 °F 1009.0 in South 4.8 mph 12.9 mph 96 % 0.0 in
07:15 12.8 °F 12.2 °F 1008.7 in SSW 3.2 mph 12.9 mph 96 % 0.0 in
07:30 12.8 °F 12.2 °F 1009.0 in SSW 4.8 mph 12.9 mph 96 % 0.0 in
07:45 12.9 °F 12.3 °F 1009.0 in SSW 4.8 mph 9.7 mph 96 % 0.0 in
08:00 13.1 °F 12.3 °F 1009.0 in SSW 6.4 mph 19.3 mph 95 % 0.0 in
08:15 13.3 °F 12.4 °F 1009.0 in SSW 6.4 mph 17.7 mph 94 % 0.0 in
08:30 13.5 °F 12.6 °F 1009.0 in South 3.2 mph 11.3 mph 94 % 0.0 in
08:45 13.6 °F 12.5 °F 1009.4 in South 4.8 mph 14.5 mph 93 % 0.0 in
09:00 13.9 °F 12.8 °F 1009.0 in South 3.2 mph 12.9 mph 93 % 0.0 in
09:15 14.1 °F 12.8 °F 1009.4 in SSW 4.8 mph 16.1 mph 92 % 0.0 in
09:30 14.3 °F 12.8 °F 1009.4 in SSW 3.2 mph 12.9 mph 91 % 0.0 in
09:45 14.6 °F 13.2 °F 1009.4 in SSW 4.8 mph 11.3 mph 91 % 0.0 in
10:00 15.1 °F 13.3 °F 1009.4 in SSW 4.8 mph 12.9 mph 89 % 0.0 in
10:15 15.3 °F 13.3 °F 1009.4 in SSW 6.4 mph 17.7 mph 88 % 0.0 in
10:30 15.8 °F 13.4 °F 1009.7 in South 6.4 mph 19.3 mph 86 % 0.0 in
10:45 16.1 °F 13.4 °F 1009.7 in SSW 8.0 mph 19.3 mph 84 % 0.0 in
11:00 16.7 °F 13.4 °F 1009.7 in SSW 9.7 mph 25.7 mph 81 % 0.0 in
11:15 16.3 °F 12.9 °F 1009.7 in SSW 6.4 mph 17.7 mph 80 % 0.0 in
11:30 16.7 °F 13.3 °F 1009.7 in SSW 8.0 mph 20.9 mph 80 % 0.0 in
11:45 17.4 °F 13.4 °F 1009.7 in SSW 6.4 mph 17.7 mph 77 % 0.0 in
12:00 18.2 °F 13.0 °F 1009.7 in SSW 8.0 mph 17.7 mph 72 % 0.0 in
12:15 18.6 °F 13.0 °F 1009.7 in SSW 8.0 mph 17.7 mph 70 % 0.0 in
12:30 18.2 °F 13.0 °F 1009.7 in South 6.4 mph 16.1 mph 72 % 0.0 in
12:45 17.8 °F 13.3 °F 1009.7 in SSW 4.8 mph 12.9 mph 75 % 0.0 in
13:00 17.9 °F 13.0 °F 1010.0 in SSW 6.4 mph 22.5 mph 73 % 0.0 in
13:15 18.2 °F 13.1 °F 1009.7 in SSW 4.8 mph 11.3 mph 72 % 0.0 in
13:30 18.7 °F 13.3 °F 1010.0 in SSW 6.4 mph 17.7 mph 71 % 0.0 in
13:45 18.8 °F 13.0 °F 1010.0 in SSW 6.4 mph 14.5 mph 69 % 0.0 in
14:00 19.1 °F 13.0 °F 1010.0 in SSW 6.4 mph 19.3 mph 68 % 0.0 in
14:15 19.6 °F 13.5 °F 1009.7 in SSW 6.4 mph 20.9 mph 68 % 0.0 in
14:30 20.0 °F 13.5 °F 1009.7 in SW 4.8 mph 14.5 mph 66 % 0.0 in
14:45 19.6 °F 12.8 °F 1009.7 in SSW 6.4 mph 20.9 mph 65 % 0.0 in
15:00 19.6 °F 12.8 °F 1010.0 in Calm     65 % 0.0 in
15:15 20.1 °F 13.1 °F 1009.7 in Calm     64 % 0.0 in
15:30 19.6 °F 12.6 °F 1009.7 in Calm     64 % 0.0 in
15:45 19.9 °F 12.4 °F 1009.7 in Calm     62 % 0.0 in
16:00 20.2 °F 12.4 °F 1009.7 in Calm     61 % 0.0 in
16:15 20.2 °F 12.7 °F 1009.7 in Calm     62 % 0.0 in
16:30 20.3 °F 12.8 °F 1009.7 in Calm     62 % 0.0 in
16:45 20.7 °F 12.9 °F 1009.7 in Calm     61 % 0.0 in
17:00 19.8 °F 12.6 °F 1009.7 in Calm     63 % 0.0 in
17:15 19.9 °F 12.4 °F 1010.0 in Calm     62 % 0.0 in
17:30 19.8 °F 12.8 °F 1010.0 in Calm     64 % 0.0 in
17:45 19.7 °F 12.7 °F 1010.0 in Calm     64 % 0.0 in
18:00 19.6 °F 12.6 °F 1010.0 in Calm     64 % 0.0 in
18:15 19.7 °F 12.7 °F 1010.0 in Calm     64 % 0.0 in
18:30 19.3 °F 12.6 °F 1010.0 in Calm     65 % 0.0 in
18:45 19.2 °F 12.7 °F 1010.0 in Calm     66 % 0.0 in
19:00 18.8 °F 12.5 °F 1010.0 in Calm     67 % 0.0 in
19:15 18.4 °F 12.6 °F 1010.0 in Calm     69 % 0.0 in
19:30 17.8 °F 12.9 °F 1010.0 in Calm     73 % 0.0 in
19:45 17.6 °F 13.1 °F 1010.0 in Calm     75 % 0.0 in
20:00 17.2 °F 12.7 °F 1010.4 in Calm     75 % 0.0 in
20:15 16.8 °F 12.8 °F 1010.7 in Calm     77 % 0.0 in
20:30 16.4 °F 12.9 °F 1010.7 in Calm     80 % 0.0 in
20:45 15.9 °F 12.6 °F 1010.7 in Calm   4.8 mph 81 % 0.0 in
21:00 15.3 °F 12.5 °F 1011.1 in Calm     83 % 0.0 in
21:15 14.9 °F 12.4 °F 1011.1 in Calm     85 % 0.0 in
21:30 14.3 °F 12.1 °F 1011.1 in Calm     87 % 0.0 in
21:45 13.6 °F 11.8 °F 1011.1 in Calm     89 % 0.0 in
22:00 13.1 °F 11.5 °F 1011.1 in Calm     90 % 0.0 in
22:15 12.7 °F 11.3 °F 1011.4 in Calm     91 % 0.0 in
22:30 12.4 °F 11.1 °F 1011.4 in Calm     92 % 0.0 in
22:45 12.0 °F 10.7 °F 1011.4 in Calm     92 % 0.0 in
23:00 11.7 °F 10.6 °F 1011.7 in Calm     93 % 0.0 in
23:15 11.3 °F 10.1 °F 1011.7 in Calm     92 % 0.0 in
23:30 11.0 °F 9.9 °F 1011.7 in Calm     93 % 0.0 in
23:45 10.6 °F 9.5 °F 1011.7 in Calm     93 % 0.0 in
Esan sääasema
Terveisin Weather Underground - 2.75 mb

Alkuperäinen skripti  Jim McMurry - jmcmurry@mwt.net Sovitettu myös templatelle  Wim van der Kuil - Leuven-Template.eu

Laitteet joita käytämme:

Sääasema
Davis VP2

Sääasemaohjelma
Cumulus

Sääaseman tietokone
Asus EeePC

Palveluntarjoaja
Suncomet

Davis VP2

Cumulus

Asus EeePC

Suncomet